sensor_id;sensor_type;location;lat;lon;timestamp;temperature;humidity
68274;SHT30;55104;47.356;19.448;2022-08-14T00:01:02;20.44;64.14
68274;SHT30;55104;47.356;19.448;2022-08-14T00:04:12;20.44;64.40
68274;SHT30;55104;47.356;19.448;2022-08-14T00:07:35;20.43;64.67
68274;SHT30;55104;47.356;19.448;2022-08-14T00:10:43;20.40;65.02
68274;SHT30;55104;47.356;19.448;2022-08-14T00:13:54;20.47;64.80
68274;SHT30;55104;47.356;19.448;2022-08-14T00:16:56;20.47;64.98
68274;SHT30;55104;47.356;19.448;2022-08-14T00:20:02;20.44;65.32
68274;SHT30;55104;47.356;19.448;2022-08-14T00:23:06;20.45;65.96
68274;SHT30;55104;47.356;19.448;2022-08-14T00:26:18;20.43;66.27
68274;SHT30;55104;47.356;19.448;2022-08-14T00:29:24;20.41;66.59
68274;SHT30;55104;47.356;19.448;2022-08-14T00:32:28;20.38;67.21
68274;SHT30;55104;47.356;19.448;2022-08-14T00:35:50;20.38;67.04
68274;SHT30;55104;47.356;19.448;2022-08-14T00:39:13;20.41;67.26
68274;SHT30;55104;47.356;19.448;2022-08-14T00:42:21;20.38;67.30
68274;SHT30;55104;47.356;19.448;2022-08-14T00:45:43;20.40;67.34
68274;SHT30;55104;47.356;19.448;2022-08-14T00:48:53;20.43;67.49
68274;SHT30;55104;47.356;19.448;2022-08-14T00:51:58;20.41;67.83
68274;SHT30;55104;47.356;19.448;2022-08-14T00:55:02;20.40;67.92
68274;SHT30;55104;47.356;19.448;2022-08-14T00:58:06;20.38;67.96
68274;SHT30;55104;47.356;19.448;2022-08-14T01:01:35;20.40;68.07
68274;SHT30;55104;47.356;19.448;2022-08-14T01:04:37;20.38;68.19
68274;SHT30;55104;47.356;19.448;2022-08-14T01:07:55;20.34;68.51
68274;SHT30;55104;47.356;19.448;2022-08-14T01:11:01;20.31;68.84
68274;SHT30;55104;47.356;19.448;2022-08-14T01:14:03;20.26;69.12
68274;SHT30;55104;47.356;19.448;2022-08-14T01:17:28;20.27;68.95
68274;SHT30;55104;47.356;19.448;2022-08-14T01:20:54;20.21;69.12
68274;SHT30;55104;47.356;19.448;2022-08-14T01:24:08;20.19;69.39
68274;SHT30;55104;47.356;19.448;2022-08-14T01:27:16;20.20;69.30
68274;SHT30;55104;47.356;19.448;2022-08-14T01:30:19;20.12;69.44
68274;SHT30;55104;47.356;19.448;2022-08-14T01:33:27;20.12;69.45
68274;SHT30;55104;47.356;19.448;2022-08-14T01:36:31;20.08;69.68
68274;SHT30;55104;47.356;19.448;2022-08-14T01:39:37;20.02;69.95
68274;SHT30;55104;47.356;19.448;2022-08-14T01:42:41;20.00;70.34
68274;SHT30;55104;47.356;19.448;2022-08-14T01:45:46;19.99;70.11
68274;SHT30;55104;47.356;19.448;2022-08-14T01:49:09;19.89;70.32
68274;SHT30;55104;47.356;19.448;2022-08-14T01:52:13;19.85;70.52
68274;SHT30;55104;47.356;19.448;2022-08-14T01:55:36;19.85;70.95
68274;SHT30;55104;47.356;19.448;2022-08-14T01:58:42;19.75;70.89
68274;SHT30;55104;47.356;19.448;2022-08-14T02:02:01;19.76;70.77
68274;SHT30;55104;47.356;19.448;2022-08-14T02:05:04;19.68;71.05
68274;SHT30;55104;47.356;19.448;2022-08-14T02:08:08;19.61;71.21
68274;SHT30;55104;47.356;19.448;2022-08-14T02:11:11;19.55;71.74
68274;SHT30;55104;47.356;19.448;2022-08-14T02:14:25;19.50;72.12
68274;SHT30;55104;47.356;19.448;2022-08-14T02:17:32;19.53;72.12
68274;SHT30;55104;47.356;19.448;2022-08-14T02:20:35;19.53;72.29
68274;SHT30;55104;47.356;19.448;2022-08-14T02:23:38;19.47;72.65
68274;SHT30;55104;47.356;19.448;2022-08-14T02:26:43;19.48;72.76
68274;SHT30;55104;47.356;19.448;2022-08-14T02:30:10;19.46;72.90
68274;SHT30;55104;47.356;19.448;2022-08-14T02:33:14;19.46;72.96
68274;SHT30;55104;47.356;19.448;2022-08-14T02:36:16;19.41;72.97
68274;SHT30;55104;47.356;19.448;2022-08-14T02:39:42;19.40;73.11
68274;SHT30;55104;47.356;19.448;2022-08-14T02:42:47;19.44;73.39
68274;SHT30;55104;47.356;19.448;2022-08-14T02:45:58;19.43;73.44
68274;SHT30;55104;47.356;19.448;2022-08-14T02:49:02;19.35;73.70
68274;SHT30;55104;47.356;19.448;2022-08-14T02:52:07;19.38;73.99
68274;SHT30;55104;47.356;19.448;2022-08-14T02:55:30;19.38;74.08
68274;SHT30;55104;47.356;19.448;2022-08-14T02:58:35;19.38;74.31
68274;SHT30;55104;47.356;19.448;2022-08-14T03:01:43;19.35;74.17
68274;SHT30;55104;47.356;19.448;2022-08-14T03:04:55;19.31;74.33
68274;SHT30;55104;47.356;19.448;2022-08-14T03:08:05;19.27;74.72
68274;SHT30;55104;47.356;19.448;2022-08-14T03:11:10;19.30;74.72
68274;SHT30;55104;47.356;19.448;2022-08-14T03:14:13;19.30;74.62
68274;SHT30;55104;47.356;19.448;2022-08-14T03:17:18;19.26;74.42
68274;SHT30;55104;47.356;19.448;2022-08-14T03:20:23;19.27;74.58
68274;SHT30;55104;47.356;19.448;2022-08-14T03:23:26;19.27;74.59
68274;SHT30;55104;47.356;19.448;2022-08-14T03:26:30;19.26;74.54
68274;SHT30;55104;47.356;19.448;2022-08-14T03:29:32;19.26;74.79
68274;SHT30;55104;47.356;19.448;2022-08-14T03:32:36;19.27;74.78
68274;SHT30;55104;47.356;19.448;2022-08-14T03:35:42;19.28;74.99
68274;SHT30;55104;47.356;19.448;2022-08-14T03:39:05;19.28;75.16
68274;SHT30;55104;47.356;19.448;2022-08-14T03:42:19;19.26;75.06
68274;SHT30;55104;47.356;19.448;2022-08-14T03:45:24;19.20;75.12
68274;SHT30;55104;47.356;19.448;2022-08-14T03:48:36;19.24;75.13
68274;SHT30;55104;47.356;19.448;2022-08-14T03:51:41;19.20;75.66
68274;SHT30;55104;47.356;19.448;2022-08-14T03:54:44;19.19;75.68
68274;SHT30;55104;47.356;19.448;2022-08-14T03:57:54;19.17;75.73
68274;SHT30;55104;47.356;19.448;2022-08-14T04:00:59;19.16;76.00
68274;SHT30;55104;47.356;19.448;2022-08-14T04:04:01;19.20;75.79
68274;SHT30;55104;47.356;19.448;2022-08-14T04:07:08;19.21;75.68
68274;SHT30;55104;47.356;19.448;2022-08-14T04:10:12;19.20;75.85
68274;SHT30;55104;47.356;19.448;2022-08-14T04:13:17;19.24;75.94
68274;SHT30;55104;47.356;19.448;2022-08-14T04:16:24;19.30;75.69
68274;SHT30;55104;47.356;19.448;2022-08-14T04:19:32;19.35;75.47
68274;SHT30;55104;47.356;19.448;2022-08-14T04:22:37;19.38;75.47
68274;SHT30;55104;47.356;19.448;2022-08-14T04:25:46;19.43;75.79
68274;SHT30;55104;47.356;19.448;2022-08-14T04:28:49;19.44;75.54
68274;SHT30;55104;47.356;19.448;2022-08-14T04:32:12;19.47;75.92
68274;SHT30;55104;47.356;19.448;2022-08-14T04:35:36;19.55;75.20
68274;SHT30;55104;47.356;19.448;2022-08-14T04:38:57;19.65;75.34
68274;SHT30;55104;47.356;19.448;2022-08-14T04:42:18;19.75;74.79
68274;SHT30;55104;47.356;19.448;2022-08-14T04:45:48;19.92;73.90
68274;SHT30;55104;47.356;19.448;2022-08-14T04:48:52;20.00;73.77
68274;SHT30;55104;47.356;19.448;2022-08-14T04:52:00;20.14;73.88
68274;SHT30;55104;47.356;19.448;2022-08-14T04:55:24;20.26;73.62
68274;SHT30;55104;47.356;19.448;2022-08-14T04:58:31;20.30;73.56
68274;SHT30;55104;47.356;19.448;2022-08-14T05:01:34;20.40;72.83
68274;SHT30;55104;47.356;19.448;2022-08-14T05:04:41;20.50;72.10
68274;SHT30;55104;47.356;19.448;2022-08-14T05:08:08;20.63;72.17
68274;SHT30;55104;47.356;19.448;2022-08-14T05:11:32;20.76;71.06
68274;SHT30;55104;47.356;19.448;2022-08-14T05:14:37;20.96;70.72
68274;SHT30;55104;47.356;19.448;2022-08-14T05:17:54;21.13;70.05
68274;SHT30;55104;47.356;19.448;2022-08-14T05:21:16;21.24;69.36
68274;SHT30;55104;47.356;19.448;2022-08-14T05:24:38;21.58;68.99
68274;SHT30;55104;47.356;19.448;2022-08-14T05:27:41;21.74;68.27
68274;SHT30;55104;47.356;19.448;2022-08-14T05:30:49;21.94;67.39
68274;SHT30;55104;47.356;19.448;2022-08-14T05:33:51;21.94;67.62
68274;SHT30;55104;47.356;19.448;2022-08-14T05:37:00;21.99;67.44
68274;SHT30;55104;47.356;19.448;2022-08-14T05:40:04;22.03;67.01
68274;SHT30;55104;47.356;19.448;2022-08-14T05:43:10;22.06;66.87
68274;SHT30;55104;47.356;19.448;2022-08-14T05:46:15;22.28;66.07
68274;SHT30;55104;47.356;19.448;2022-08-14T05:49:24;22.46;66.02
68274;SHT30;55104;47.356;19.448;2022-08-14T05:52:34;22.63;65.55
68274;SHT30;55104;47.356;19.448;2022-08-14T05:55:50;22.79;64.51
68274;SHT30;55104;47.356;19.448;2022-08-14T05:58:53;22.90;64.38
68274;SHT30;55104;47.356;19.448;2022-08-14T06:01:55;23.16;63.60
68274;SHT30;55104;47.356;19.448;2022-08-14T06:04:57;23.24;63.06
68274;SHT30;55104;47.356;19.448;2022-08-14T06:08:00;23.40;62.46
68274;SHT30;55104;47.356;19.448;2022-08-14T06:11:09;23.78;62.14
68274;SHT30;55104;47.356;19.448;2022-08-14T06:14:21;23.81;61.35
68274;SHT30;55104;47.356;19.448;2022-08-14T06:17:25;23.87;61.94
68274;SHT30;55104;47.356;19.448;2022-08-14T06:20:29;23.89;61.48
68274;SHT30;55104;47.356;19.448;2022-08-14T06:23:31;24.18;61.12
68274;SHT30;55104;47.356;19.448;2022-08-14T06:26:33;24.16;60.91
68274;SHT30;55104;47.356;19.448;2022-08-14T06:29:38;24.14;60.85
68274;SHT30;55104;47.356;19.448;2022-08-14T06:32:40;24.33;60.13
68274;SHT30;55104;47.356;19.448;2022-08-14T06:35:43;24.36;60.71
68274;SHT30;55104;47.356;19.448;2022-08-14T06:38:50;24.52;59.77
68274;SHT30;55104;47.356;19.448;2022-08-14T06:41:52;24.52;59.84
68274;SHT30;55104;47.356;19.448;2022-08-14T06:44:59;24.36;59.89
68274;SHT30;55104;47.356;19.448;2022-08-14T06:48:15;24.26;60.20
68274;SHT30;55104;47.356;19.448;2022-08-14T06:51:18;24.21;60.01
68274;SHT30;55104;47.356;19.448;2022-08-14T06:54:20;24.15;60.36
68274;SHT30;55104;47.356;19.448;2022-08-14T06:57:37;24.50;59.72
68274;SHT30;55104;47.356;19.448;2022-08-14T07:00:40;24.71;59.10
68274;SHT30;55104;47.356;19.448;2022-08-14T07:04:03;24.77;58.89
68274;SHT30;55104;47.356;19.448;2022-08-14T07:07:25;25.01;58.38
68274;SHT30;55104;47.356;19.448;2022-08-14T07:10:37;25.22;57.89
68274;SHT30;55104;47.356;19.448;2022-08-14T07:13:39;25.25;58.27
68274;SHT30;55104;47.356;19.448;2022-08-14T07:16:42;25.26;57.53
68274;SHT30;55104;47.356;19.448;2022-08-14T07:19:45;25.46;57.22
68274;SHT30;55104;47.356;19.448;2022-08-14T07:22:49;25.79;57.47
68274;SHT30;55104;47.356;19.448;2022-08-14T07:25:59;26.05;56.13
68274;SHT30;55104;47.356;19.448;2022-08-14T07:29:03;26.15;55.07
68274;SHT30;55104;47.356;19.448;2022-08-14T07:32:06;26.33;55.80
68274;SHT30;55104;47.356;19.448;2022-08-14T07:35:20;26.45;54.73
68274;SHT30;55104;47.356;19.448;2022-08-14T07:38:25;26.64;54.65
68274;SHT30;55104;47.356;19.448;2022-08-14T07:41:37;26.63;54.20
68274;SHT30;55104;47.356;19.448;2022-08-14T07:44:39;26.86;54.48
68274;SHT30;55104;47.356;19.448;2022-08-14T07:47:51;26.97;53.34
68274;SHT30;55104;47.356;19.448;2022-08-14T07:50:54;27.15;54.15
68274;SHT30;55104;47.356;19.448;2022-08-14T07:54:05;27.27;52.59
68274;SHT30;55104;47.356;19.448;2022-08-14T07:57:12;27.24;52.84
68274;SHT30;55104;47.356;19.448;2022-08-14T08:00:26;27.37;52.49
68274;SHT30;55104;47.356;19.448;2022-08-14T08:03:33;27.48;53.06
68274;SHT30;55104;47.356;19.448;2022-08-14T08:06:36;27.45;51.55
68274;SHT30;55104;47.356;19.448;2022-08-14T08:09:43;27.59;52.36
68274;SHT30;55104;47.356;19.448;2022-08-14T08:13:05;27.66;51.54
68274;SHT30;55104;47.356;19.448;2022-08-14T08:16:09;27.55;51.29
68274;SHT30;55104;47.356;19.448;2022-08-14T08:19:12;27.72;51.82
68274;SHT30;55104;47.356;19.448;2022-08-14T08:22:19;27.97;51.62
68274;SHT30;55104;47.356;19.448;2022-08-14T08:25:30;28.08;51.19
68274;SHT30;55104;47.356;19.448;2022-08-14T08:28:40;28.15;50.92
68274;SHT30;55104;47.356;19.448;2022-08-14T08:31:48;28.28;50.59
68274;SHT30;55104;47.356;19.448;2022-08-14T08:34:53;28.49;48.58
68274;SHT30;55104;47.356;19.448;2022-08-14T08:38:01;28.45;49.31
68274;SHT30;55104;47.356;19.448;2022-08-14T08:41:15;28.66;48.91
68274;SHT30;55104;47.356;19.448;2022-08-14T08:44:18;28.69;47.80
68274;SHT30;55104;47.356;19.448;2022-08-14T08:47:38;28.92;49.03
68274;SHT30;55104;47.356;19.448;2022-08-14T08:50:41;29.03;48.70
68274;SHT30;55104;47.356;19.448;2022-08-14T08:53:42;29.17;47.31
68274;SHT30;55104;47.356;19.448;2022-08-14T08:56:49;29.20;46.14
68274;SHT30;55104;47.356;19.448;2022-08-14T08:59:53;29.30;46.58
68274;SHT30;55104;47.356;19.448;2022-08-14T09:03:07;29.55;46.01
68274;SHT30;55104;47.356;19.448;2022-08-14T09:06:11;29.71;46.69
68274;SHT30;55104;47.356;19.448;2022-08-14T09:09:33;29.88;45.26
68274;SHT30;55104;47.356;19.448;2022-08-14T09:12:56;29.99;45.26
68274;SHT30;55104;47.356;19.448;2022-08-14T09:15:58;30.17;44.25
68274;SHT30;55104;47.356;19.448;2022-08-14T09:19:19;30.27;44.95
68274;SHT30;55104;47.356;19.448;2022-08-14T09:22:22;30.33;44.79
68274;SHT30;55104;47.356;19.448;2022-08-14T09:25:38;30.45;43.87
68274;SHT30;55104;47.356;19.448;2022-08-14T09:29:05;30.37;42.95
68274;SHT30;55104;47.356;19.448;2022-08-14T09:32:08;30.60;42.85
68274;SHT30;55104;47.356;19.448;2022-08-14T09:35:41;30.74;42.72
68274;SHT30;55104;47.356;19.448;2022-08-14T09:42:47;30.93;41.93
68274;SHT30;55104;47.356;19.448;2022-08-14T09:45:52;31.29;41.39
68274;SHT30;55104;47.356;19.448;2022-08-14T09:49:05;31.12;40.20
68274;SHT30;55104;47.356;19.448;2022-08-14T09:52:12;31.17;41.64
68274;SHT30;55104;47.356;19.448;2022-08-14T09:55:35;31.03;40.76
68274;SHT30;55104;47.356;19.448;2022-08-14T09:58:44;30.89;40.98
68274;SHT30;55104;47.356;19.448;2022-08-14T10:01:48;31.16;40.06
68274;SHT30;55104;47.356;19.448;2022-08-14T10:05:08;31.67;40.76
68274;SHT30;55104;47.356;19.448;2022-08-14T10:08:20;31.95;38.53
68274;SHT30;55104;47.356;19.448;2022-08-14T10:11:30;31.61;39.54
68274;SHT30;55104;47.356;19.448;2022-08-14T10:14:36;31.50;39.07
68274;SHT30;55104;47.356;19.448;2022-08-14T10:17:38;31.19;38.88
68274;SHT30;55104;47.356;19.448;2022-08-14T10:23:52;30.92;39.79
68274;SHT30;55104;47.356;19.448;2022-08-14T10:26:59;30.89;38.72
68274;SHT30;55104;47.356;19.448;2022-08-14T10:30:12;30.58;40.37
68274;SHT30;55104;47.356;19.448;2022-08-14T10:36:29;30.58;37.84
68274;SHT30;55104;47.356;19.448;2022-08-14T10:39:59;30.57;35.76
68274;SHT30;55104;47.356;19.448;2022-08-14T10:43:22;30.61;38.90
68274;SHT30;55104;47.356;19.448;2022-08-14T10:46:40;30.55;38.62
68274;SHT30;55104;47.356;19.448;2022-08-14T10:50:03;30.78;38.06
68274;SHT30;55104;47.356;19.448;2022-08-14T10:53:08;31.29;38.69
68274;SHT30;55104;47.356;19.448;2022-08-14T10:56:10;31.77;37.31
68274;SHT30;55104;47.356;19.448;2022-08-14T10:59:44;31.65;37.13
68274;SHT30;55104;47.356;19.448;2022-08-14T11:03:05;31.72;37.53
68274;SHT30;55104;47.356;19.448;2022-08-14T11:06:20;31.47;36.55
68274;SHT30;55104;47.356;19.448;2022-08-14T11:09:25;31.27;36.69
68274;SHT30;55104;47.356;19.448;2022-08-14T11:12:43;31.16;36.56
68274;SHT30;55104;47.356;19.448;2022-08-14T11:25:10;31.36;37.30
68274;SHT30;55104;47.356;19.448;2022-08-14T12:27:57;32.46;32.01
68274;SHT30;55104;47.356;19.448;2022-08-14T12:31:16;32.47;32.05
68274;SHT30;55104;47.356;19.448;2022-08-14T12:34:21;32.70;34.64
68274;SHT30;55104;47.356;19.448;2022-08-14T12:37:29;32.85;33.96
68274;SHT30;55104;47.356;19.448;2022-08-14T12:41:00;32.75;33.70
68274;SHT30;55104;47.356;19.448;2022-08-14T12:44:06;32.75;32.50
68274;SHT30;55104;47.356;19.448;2022-08-14T12:47:10;33.07;34.02
68274;SHT30;55104;47.356;19.448;2022-08-14T12:50:16;33.52;32.85
68274;SHT30;55104;47.356;19.448;2022-08-14T12:53:21;33.43;32.00
68274;SHT30;55104;47.356;19.448;2022-08-14T12:56:39;33.62;32.39
68274;SHT30;55104;47.356;19.448;2022-08-14T12:59:41;33.87;32.69
68274;SHT30;55104;47.356;19.448;2022-08-14T13:02:48;34.21;31.49
68274;SHT30;55104;47.356;19.448;2022-08-14T13:05:57;34.32;31.76
68274;SHT30;55104;47.356;19.448;2022-08-14T13:09:03;34.42;31.57
68274;SHT30;55104;47.356;19.448;2022-08-14T13:12:12;34.59;30.99
68274;SHT30;55104;47.356;19.448;2022-08-14T13:15:35;34.46;31.07
68274;SHT30;55104;47.356;19.448;2022-08-14T13:18:40;33.94;30.77
68274;SHT30;55104;47.356;19.448;2022-08-14T13:21:51;33.77;31.89
68274;SHT30;55104;47.356;19.448;2022-08-14T13:25:07;33.19;30.30
68274;SHT30;55104;47.356;19.448;2022-08-14T13:28:16;33.22;30.60
68274;SHT30;55104;47.356;19.448;2022-08-14T13:31:35;32.60;31.04
68274;SHT30;55104;47.356;19.448;2022-08-14T13:34:41;32.23;32.51
68274;SHT30;55104;47.356;19.448;2022-08-14T13:37:47;32.32;33.03
68274;SHT30;55104;47.356;19.448;2022-08-14T13:40:54;32.49;33.80
68274;SHT30;55104;47.356;19.448;2022-08-14T13:43:56;32.67;32.47
68274;SHT30;55104;47.356;19.448;2022-08-14T13:47:01;32.89;31.91
68274;SHT30;55104;47.356;19.448;2022-08-14T13:50:14;32.65;32.18
68274;SHT30;55104;47.356;19.448;2022-08-14T13:53:22;32.74;31.29
68274;SHT30;55104;47.356;19.448;2022-08-14T13:56:26;32.60;32.24
68274;SHT30;55104;47.356;19.448;2022-08-14T13:59:48;32.52;31.84
68274;SHT30;55104;47.356;19.448;2022-08-14T14:02:52;32.71;31.54
68274;SHT30;55104;47.356;19.448;2022-08-14T14:05:58;32.92;31.29
68274;SHT30;55104;47.356;19.448;2022-08-14T14:09:02;33.50;29.88
68274;SHT30;55104;47.356;19.448;2022-08-14T14:12:04;33.32;31.19
68274;SHT30;55104;47.356;19.448;2022-08-14T14:15:29;33.21;30.80
68274;SHT30;55104;47.356;19.448;2022-08-14T14:18:53;33.22;31.33
68274;SHT30;55104;47.356;19.448;2022-08-14T14:22:09;32.87;31.18
68274;SHT30;55104;47.356;19.448;2022-08-14T14:25:31;32.70;31.78
68274;SHT30;55104;47.356;19.448;2022-08-14T14:28:49;32.81;30.67
68274;SHT30;55104;47.356;19.448;2022-08-14T14:31:51;32.65;31.25
68274;SHT30;55104;47.356;19.448;2022-08-14T14:34:54;32.53;31.96
68274;SHT30;55104;47.356;19.448;2022-08-14T14:37:58;32.16;32.73
68274;SHT30;55104;47.356;19.448;2022-08-14T14:41:04;32.50;31.78
68274;SHT30;55104;47.356;19.448;2022-08-14T14:44:09;32.71;31.27
68274;SHT30;55104;47.356;19.448;2022-08-14T14:47:17;32.88;30.51
68274;SHT30;55104;47.356;19.448;2022-08-14T14:50:24;33.02;31.48
68274;SHT30;55104;47.356;19.448;2022-08-14T14:53:29;33.02;31.24
68274;SHT30;55104;47.356;19.448;2022-08-14T14:56:40;33.12;30.11
68274;SHT30;55104;47.356;19.448;2022-08-14T14:59:53;33.04;30.50
68274;SHT30;55104;47.356;19.448;2022-08-14T15:02:55;33.08;29.82
68274;SHT30;55104;47.356;19.448;2022-08-14T15:06:01;33.12;29.88
68274;SHT30;55104;47.356;19.448;2022-08-14T15:09:03;33.19;29.73
68274;SHT30;55104;47.356;19.448;2022-08-14T15:12:09;32.94;30.40
68274;SHT30;55104;47.356;19.448;2022-08-14T15:15:32;32.94;30.81
68274;SHT30;55104;47.356;19.448;2022-08-14T15:18:39;33.01;30.12
68274;SHT30;55104;47.356;19.448;2022-08-14T15:21:49;32.99;30.35
68274;SHT30;55104;47.356;19.448;2022-08-14T15:24:52;32.67;30.02
68274;SHT30;55104;47.356;19.448;2022-08-14T15:27:54;32.87;30.23
68274;SHT30;55104;47.356;19.448;2022-08-14T15:30:56;32.70;30.07
68274;SHT30;55104;47.356;19.448;2022-08-14T15:34:00;32.78;30.52
68274;SHT30;55104;47.356;19.448;2022-08-14T15:37:35;32.70;30.47
68274;SHT30;55104;47.356;19.448;2022-08-14T15:40:43;32.50;30.48
68274;SHT30;55104;47.356;19.448;2022-08-14T15:43:57;32.39;30.68
68274;SHT30;55104;47.356;19.448;2022-08-14T15:47:03;32.44;30.61
68274;SHT30;55104;47.356;19.448;2022-08-14T15:50:08;32.49;30.90
68274;SHT30;55104;47.356;19.448;2022-08-14T15:53:10;32.54;30.50
68274;SHT30;55104;47.356;19.448;2022-08-14T15:56:14;32.41;29.90
68274;SHT30;55104;47.356;19.448;2022-08-14T15:59:38;32.35;30.88
68274;SHT30;55104;47.356;19.448;2022-08-14T16:03:00;32.22;30.48
68274;SHT30;55104;47.356;19.448;2022-08-14T16:06:04;32.10;30.68
68274;SHT30;55104;47.356;19.448;2022-08-14T16:09:12;31.89;30.40
68274;SHT30;55104;47.356;19.448;2022-08-14T16:12:15;31.96;30.63
68274;SHT30;55104;47.356;19.448;2022-08-14T16:15:20;31.88;30.61
68274;SHT30;55104;47.356;19.448;2022-08-14T16:18:22;31.77;30.13
68274;SHT30;55104;47.356;19.448;2022-08-14T16:21:25;31.78;30.94
68274;SHT30;55104;47.356;19.448;2022-08-14T16:24:35;31.68;31.27
68274;SHT30;55104;47.356;19.448;2022-08-14T16:27:57;31.50;31.23
68274;SHT30;55104;47.356;19.448;2022-08-14T16:31:09;31.45;30.80
68274;SHT30;55104;47.356;19.448;2022-08-14T16:34:12;31.26;30.71
68274;SHT30;55104;47.356;19.448;2022-08-14T16:37:37;31.00;31.55
68274;SHT30;55104;47.356;19.448;2022-08-14T16:40:44;30.96;31.87
68274;SHT30;55104;47.356;19.448;2022-08-14T16:43:47;30.82;32.46
68274;SHT30;55104;47.356;19.448;2022-08-14T16:46:51;30.65;33.02
68274;SHT30;55104;47.356;19.448;2022-08-14T16:49:59;30.49;33.10
68274;SHT30;55104;47.356;19.448;2022-08-14T16:53:09;30.44;33.48
68274;SHT30;55104;47.356;19.448;2022-08-14T16:59:24;30.16;33.68
68274;SHT30;55104;47.356;19.448;2022-08-14T17:02:47;29.99;34.24
68274;SHT30;55104;47.356;19.448;2022-08-14T17:05:51;29.86;34.43
68274;SHT30;55104;47.356;19.448;2022-08-14T17:08:53;29.73;34.71
68274;SHT30;55104;47.356;19.448;2022-08-14T17:12:20;29.55;35.45
68274;SHT30;55104;47.356;19.448;2022-08-14T17:15:36;29.35;36.00
68274;SHT30;55104;47.356;19.448;2022-08-14T17:18:49;29.23;36.25
68274;SHT30;55104;47.356;19.448;2022-08-14T17:22:01;29.07;36.97
68274;SHT30;55104;47.356;19.448;2022-08-14T17:25:05;28.92;37.06
68274;SHT30;55104;47.356;19.448;2022-08-14T17:28:18;28.78;37.19
68274;SHT30;55104;47.356;19.448;2022-08-14T17:31:44;28.69;37.44
68274;SHT30;55104;47.356;19.448;2022-08-14T17:35:03;28.45;37.97
68274;SHT30;55104;47.356;19.448;2022-08-14T17:38:11;28.34;37.81
68274;SHT30;55104;47.356;19.448;2022-08-14T17:41:39;28.17;38.24
68274;SHT30;55104;47.356;19.448;2022-08-14T17:44:44;28.00;38.78
68274;SHT30;55104;47.356;19.448;2022-08-14T17:47:49;27.83;39.23
68274;SHT30;55104;47.356;19.448;2022-08-14T17:50:52;27.66;39.36
68274;SHT30;55104;47.356;19.448;2022-08-14T17:54:04;27.53;39.83
68274;SHT30;55104;47.356;19.448;2022-08-14T17:57:15;27.39;40.03
68274;SHT30;55104;47.356;19.448;2022-08-14T18:00:18;27.28;40.10
68274;SHT30;55104;47.356;19.448;2022-08-14T18:03:20;27.15;40.37
68274;SHT30;55104;47.356;19.448;2022-08-14T18:06:43;27.01;40.82
68274;SHT30;55104;47.356;19.448;2022-08-14T18:10:07;26.93;40.99
68274;SHT30;55104;47.356;19.448;2022-08-14T18:13:30;26.80;41.00
68274;SHT30;55104;47.356;19.448;2022-08-14T18:16:53;26.69;41.50
68274;SHT30;55104;47.356;19.448;2022-08-14T18:19:57;26.51;41.97
68274;SHT30;55104;47.356;19.448;2022-08-14T18:23:00;26.41;42.68
68274;SHT30;55104;47.356;19.448;2022-08-14T18:26:07;26.32;42.66
68274;SHT30;55104;47.356;19.448;2022-08-14T18:29:31;26.20;43.74
68274;SHT30;55104;47.356;19.448;2022-08-14T18:35:51;25.90;45.23
68274;SHT30;55104;47.356;19.448;2022-08-14T18:39:30;25.74;44.91
68274;SHT30;55104;47.356;19.448;2022-08-14T18:45:57;25.47;45.55
68274;SHT30;55104;47.356;19.448;2022-08-14T18:49:19;25.32;46.73
68274;SHT30;55104;47.356;19.448;2022-08-14T18:55:42;25.04;47.37
68274;SHT30;55104;47.356;19.448;2022-08-14T18:58:54;24.97;48.39
68274;SHT30;55104;47.356;19.448;2022-08-14T19:08:49;24.53;49.19
68274;SHT30;55104;47.356;19.448;2022-08-14T19:11:51;24.46;50.14
68274;SHT30;55104;47.356;19.448;2022-08-14T19:15:06;24.36;49.41
68274;SHT30;55104;47.356;19.448;2022-08-14T19:21:34;24.16;51.06
68274;SHT30;55104;47.356;19.448;2022-08-14T19:28:16;23.97;51.19
68274;SHT30;55104;47.356;19.448;2022-08-14T19:31:33;23.85;51.42
68274;SHT30;55104;47.356;19.448;2022-08-14T19:34:44;23.79;51.64
68274;SHT30;55104;47.356;19.448;2022-08-14T19:37:51;23.74;51.75
68274;SHT30;55104;47.356;19.448;2022-08-14T19:40:56;23.70;52.74
68274;SHT30;55104;47.356;19.448;2022-08-14T19:44:15;23.67;53.08
68274;SHT30;55104;47.356;19.448;2022-08-14T19:47:20;23.60;52.62
68274;SHT30;55104;47.356;19.448;2022-08-14T19:50:42;23.56;52.74
68274;SHT30;55104;47.356;19.448;2022-08-14T19:53:59;23.40;52.82
68274;SHT30;55104;47.356;19.448;2022-08-14T19:57:23;23.27;53.36
68274;SHT30;55104;47.356;19.448;2022-08-14T20:00:30;23.16;54.05
68274;SHT30;55104;47.356;19.448;2022-08-14T20:03:42;23.09;54.39
68274;SHT30;55104;47.356;19.448;2022-08-14T20:07:01;23.02;54.49
68274;SHT30;55104;47.356;19.448;2022-08-14T20:10:09;22.95;54.71
68274;SHT30;55104;47.356;19.448;2022-08-14T20:13:32;22.90;55.10
68274;SHT30;55104;47.356;19.448;2022-08-14T20:16:42;22.90;55.39
68274;SHT30;55104;47.356;19.448;2022-08-14T20:19:45;22.84;55.60
68274;SHT30;55104;47.356;19.448;2022-08-14T20:22:47;22.72;55.78
68274;SHT30;55104;47.356;19.448;2022-08-14T20:25:56;22.65;56.38
68274;SHT30;55104;47.356;19.448;2022-08-14T20:28:59;22.58;56.50
68274;SHT30;55104;47.356;19.448;2022-08-14T20:32:05;22.54;57.00
68274;SHT30;55104;47.356;19.448;2022-08-14T20:35:07;22.51;57.02
68274;SHT30;55104;47.356;19.448;2022-08-14T20:38:22;22.53;57.27
68274;SHT30;55104;47.356;19.448;2022-08-14T20:41:34;22.41;56.99
68274;SHT30;55104;47.356;19.448;2022-08-14T20:44:42;22.33;57.46
68274;SHT30;55104;47.356;19.448;2022-08-14T20:48:06;22.33;57.83
68274;SHT30;55104;47.356;19.448;2022-08-14T20:51:25;22.22;57.89
68274;SHT30;55104;47.356;19.448;2022-08-14T20:54:37;22.16;58.04
68274;SHT30;55104;47.356;19.448;2022-08-14T20:57:52;22.13;57.99
68274;SHT30;55104;47.356;19.448;2022-08-14T21:01:10;22.13;57.61
68274;SHT30;55104;47.356;19.448;2022-08-14T21:04:28;22.06;57.56
68274;SHT30;55104;47.356;19.448;2022-08-14T21:07:33;22.05;57.58
68274;SHT30;55104;47.356;19.448;2022-08-14T21:10:40;21.98;58.23
68274;SHT30;55104;47.356;19.448;2022-08-14T21:13:45;21.98;58.66
68274;SHT30;55104;47.356;19.448;2022-08-14T21:17:07;21.98;58.75
68274;SHT30;55104;47.356;19.448;2022-08-14T21:20:11;21.89;59.01
68274;SHT30;55104;47.356;19.448;2022-08-14T21:23:30;21.86;58.98
68274;SHT30;55104;47.356;19.448;2022-08-14T21:26:33;21.81;58.71